Hastings Natural History Reservation, California Weather observations

Data are for 10 minute period ending at time listed.
 Day   Time   Solar   Ave.   Ave.  Ave.  Vector  Max.   Baro.   Total    
  of    of     Rad.   Air    Rel.  Wind   Wind   Wind  Press.  Precip.   
Year   Day            Temp.  Hum.  Speed  Dir.   Gust                    
2015   (PST)  Kw/m2    F      %     mph   deg.    mph    mb.     in.     
-------------------------------------------------------------------------
 181    5:00   0.00   63.4    48    0.1    58     0.7   950.0    0.00 
 181    5:10   0.00   63.2    49    0.9    54     2.1   950.0    0.00 
 181    5:20   0.00   63.3    50    0.9    65     2.2   950.0    0.00 
 181    5:30   0.00   63.3    50    0.1    45     0.9   949.9    0.00 
 181    5:40   0.00   63.2    50    0.7    61     1.5   949.9    0.00 
 181    5:50   0.00   63.4    50    0.3    64     1.5   949.9    0.00 
 181    6:00   0.00   63.5    51    0.4    53     1.3   950.0    0.00 
 181    6:10   0.00   63.6    51    1.0    68     1.8   950.1    0.00 
 181    6:20   0.00   63.8    52    0.4    59     1.6   950.2    0.00 
 181    6:30   0.01   63.8    52    0.3    40     1.0   950.3    0.00 
 181    6:40   0.01   64.2    52    0.0    41     0.6   950.3    0.00 
 181    6:50   0.01   64.4    52    0.6    60     1.3   950.2    0.00 
 181    7:00   0.01   65.0    52    0.0    34     0.7   950.2    0.00 
 181    7:10   0.02   65.4    53    0.0   212     0.7   950.1    0.00 
 181    7:20   0.03   66.6    50    0.0     0     0.0   949.9    0.00 
 181    7:30   0.09   68.3    48    0.3   232     1.0   949.9    0.00 
 181    7:40   0.19   70.9    44    0.0     0     0.0   950.0    0.00 
 181    7:50   0.21   74.6    38    0.8    77     1.4   949.9    0.00 
 181    8:00   0.24   77.1    36    0.5    78     1.2   949.9    0.00 
 181    8:10   0.28   79.3    34    0.7    66     1.2   949.9    0.00 
 181    8:20   0.31   81.9    32    0.4    64     1.2   949.9    0.00 
 181    8:30   0.34   85.2    29    0.0    87     0.8   950.0    0.00 
 181    8:40   0.37   86.4    27    0.8   213     2.3   950.2    0.00 
 181    8:50   0.40   88.3    26    0.6   211     2.0   950.3    0.00 
 181    9:00   0.42   89.4    25    1.0   225     2.7   950.4    0.00 
 181    9:10   0.46   90.2    23    1.2   257     4.5   950.4    0.00 
 181    9:20   0.48   91.0    23    2.5   245     5.1   950.4    0.00 
 181    9:30   0.51   90.6    23    2.0   250     5.5   950.4    0.00 
 181    9:40   0.54   91.5    22    2.3   260     5.8   950.5    0.00 
 181    9:50   0.56   91.1    22    3.2   248     5.7   950.5    0.00 
 181   10:00   0.56   91.3    21    2.6   255     5.8   950.4    0.00 
 181   10:10   0.50   92.1    21    1.6   265     5.1   950.3    0.00 
 181   10:20   0.53   91.8    21    2.4   250     5.6   950.4    0.00 
 181   10:30   0.52   92.2    21    3.7   254     8.0   950.3    0.00 
 181   10:40   0.58   92.1    21    3.5   247     8.3   950.4    0.00 
 181   10:50   0.72   94.2    19    2.2   257     7.7   950.4    0.00 
 181   11:00   0.71   93.9    19    4.5   240     8.0   950.4    0.00 
 181   11:10   0.63   94.5    18    2.4   262     6.9   950.4    0.00 
 181   11:20   0.63   94.1    18    2.9   261     7.7   950.3    0.00 
 181   11:30   0.58   94.4    18    3.0   252     8.2   950.3    0.00 
 181   11:40   0.61   95.0    17    2.6   259     6.8   950.3    0.00 
 181   11:50   0.70   96.2    17    2.4   302     7.5   950.2    0.00 
 181   12:00   0.74   98.2    16    1.5   296     5.3   950.1    0.00 
 181   12:10   0.66   98.3    16    2.0   252     6.8   950.0    0.00 
 181   12:20   0.92   96.9    16    4.7   242     9.7   949.9    0.00 
 181   12:30   0.94   98.0    16    3.7   263    10.2   949.8    0.00 
 181   12:40   0.94   98.7    16    3.0   259     9.5   949.6    0.00 
 181   12:50   0.86   98.6    16    4.2   252     9.0   949.6    0.00 
 181   13:00   0.83   97.2    17    5.4   250    10.7   949.5    0.00 
 181   13:10   0.98   98.1    18    3.1   262     8.2   949.6    0.00 
 181   13:20   0.96   98.7    17    4.0   259    10.5   949.5    0.00 
 181   13:30   0.97   98.5    17    3.9   260    10.1   949.5    0.00 
 181   13:40   0.91   98.7    16    3.6   260    10.3   949.4    0.00 
 181   13:50   0.86   98.5    16    5.4   251    12.2   949.4    0.00 
 181   14:00   0.91   99.7    16    3.1   282     9.0   949.3    0.00 
 181   14:10   0.89   99.0    17    4.5   260    11.1   949.1    0.00 
 181   14:20   0.86   98.0    17    4.8   258    13.1   949.2    0.00 
 181   14:30   0.84   97.5    17    5.7   251    12.9   949.2    0.00 
 181   14:40   0.82   96.5    17    5.1   255    12.6   949.2    0.00 
 181   14:50   0.86   98.0    16    4.2   257    10.7   949.1    0.00 
 181   15:00   0.82   97.1    16    4.9   251    11.0   949.2    0.00 
 181   15:10   0.82   96.4    16    5.4   264    12.4   949.2    0.00 
 181   15:20   0.82   97.4    15    4.5   260    12.7   949.2    0.00 
 181   15:30   0.82   97.2    16    4.1   278    10.4   949.2    0.00 
 181   15:40   0.77   97.6    15    3.9   256     9.7   949.0    0.00 
 181   15:50   0.77   96.5    15    4.7   252    10.7   949.0    0.00 
 181   16:00   0.76   96.7    15    5.4   243    11.5   948.9    0.00 
 181   16:10   0.74   96.6    15    4.1   248    10.7   948.9    0.00 
 181   16:20   0.70   97.4    15    3.7   263    10.9   948.9    0.00 
 181   16:30   0.62   96.1    16    4.4   249     9.3   948.9    0.00 
 181   16:40   0.59   95.8    16    3.9   253     7.7   949.0    0.00 
 181   16:50   0.52   95.2    16    4.0   252    10.5   949.0    0.00 
 181   17:00   0.49   95.2    17    4.1   248     9.2   949.1    0.00 
 181   17:10   0.44   94.9    18    3.7   245    11.0   949.1    0.00 
 181   17:20   0.43   94.9    17    4.7   241    10.7   949.0    0.00 
 181   17:30   0.43   93.8    18    5.3   244    11.2   949.1    0.00 
 181   17:40   0.43   94.1    18    4.7   251     9.0   949.1    0.00 
 181   17:50   0.35   93.7    18    3.8   261     9.2   949.1    0.00 
 181   18:00   0.39   93.6    18    5.2   246     9.5   949.1    0.00 
 181   18:10   0.40   93.7    18    4.8   242    10.1   949.1    0.00 
 181   18:20   0.38   93.6    18    5.2   240     9.0   949.1    0.00 
 181   18:30   0.34   92.9    18    4.4   249     8.5   949.1    0.00 
 181   18:40   0.31   92.9    19    3.6   246     8.4   949.1    0.00 
 181   18:50   0.28   92.7    19    2.7   248     8.0   949.3    0.00 
 181   19:00   0.24   92.7    20    1.8   249     6.6   949.4    0.00 
 181   19:10   0.21   91.5    21    3.2   249     6.8   949.5    0.00 
 181   19:20   0.12   90.1    22    3.2   249     6.6   949.6    0.00 
 181   19:30   0.06   89.7    23    2.3   255     6.3   949.7    0.00 
 181   19:40   0.03   89.3    23    2.9   246     6.8   949.8    0.00 
 181   19:50   0.03   88.7    24    1.7   249     3.7   949.8    0.00 
 181   20:00   0.03   88.1    25    0.2   268     2.3   949.9    0.00 
 181   20:10   0.03   87.0    28    0.1    42     1.0   950.0    0.00 
 181   20:20   0.02   85.7    29    0.4    30     1.2   949.8    0.00 
 181   20:30   0.01   84.0    30    1.2    52     1.8   949.8    0.00 
 181   20:40   0.00   82.5    31    1.4    51     1.8   949.7    0.00 
 181   20:50   0.00   81.3    32    0.4    39     1.5   949.9    0.00 
 181   21:00   0.00   80.4    33    0.7    50     1.4   949.8    0.00 
 181   21:10   0.00   79.3    33    1.2    47     2.0   949.7    0.00 
 181   21:20   0.00   78.2    33    1.2    39     2.1   949.7    0.00 
 181   21:30   0.00   77.6    33    1.1    56     3.7   949.7    0.00 
 181   21:40   0.00   77.4    33    0.4    37     3.3   949.7    0.00 
 181   21:50   0.00   76.3    34    0.1   258     0.6   949.7    0.00 
 181   22:00   0.00   75.4    34    0.4    61     1.8   949.8    0.00 
 181   22:10   0.00   74.9    35    0.2    98     1.8   949.9    0.00 
 181   22:20   0.00   74.2    36    0.3   242     1.8   949.9    0.00 
 181   22:30   0.00   73.8    36    0.8    51     2.9   949.9    0.00 
 181   22:40   0.00   73.4    37    0.4   114     2.3   950.0    0.00 
 181   22:50   0.00   73.8    35    0.3    78     1.8   950.0    0.00 
 181   23:00   0.00   73.5    36    0.2   106     1.9   949.9    0.00 
 181   23:10   0.00   73.4    37    0.0     0     0.0   949.9    0.00 
 181   23:20   0.00   73.3    37    0.1   251     1.3   949.9    0.00 
 181   23:30   0.00   73.4    37    0.0     0     0.0   949.9    0.00 
 181   23:40   0.00   73.5    37    0.0     0     0.0   949.8    0.00 
 181   23:50   0.00   73.6    37    0.2   232     1.7   949.7    0.00 
 182    0:00   0.00   73.4    37    0.1   301     1.2   949.7    0.00 
 182    0:10   0.00   73.2    36    0.6    48     1.4   949.6    0.00 
 182    0:20   0.00   72.8    36    0.3    53     1.1   949.5    0.00 
 182    0:30   0.00   72.0    36    0.3    44     1.1   949.4    0.00 
 182    0:40   0.00   71.2    36    0.8    49     2.0   949.4    0.00 
 182    0:50   0.00   70.6    35    0.8    52     1.7   949.3    0.00 
 182    1:00   0.00   70.1    37    0.1   250     0.9   949.2    0.00 
 182    1:10   0.00   69.5    38    0.3   241     1.8   949.2    0.00 
 182    1:20   0.00   69.0    38    0.2    50     1.1   949.1    0.00 
 182    1:30   0.00   68.8    38    0.1    59     0.7   949.0    0.00 
 182    1:40   0.00   68.6    38    0.1    85     0.7   948.8    0.00 
 182    1:50   0.00   68.1    38    0.0    65     0.7   948.6    0.00 
 182    2:00   0.00   67.6    39    0.1    48     1.1   948.5    0.00 
 182    2:10   0.00   67.2    40    0.5    56     1.9   948.5    0.00 
 182    2:20   0.00   67.1    40    0.0     0     0.0   948.5    0.00 
 182    2:30   0.00   66.8    40    0.3    54     1.2   948.5    0.00 
 182    2:40   0.00   66.7    40    0.2    67     1.4   948.5    0.00 
 182    2:50   0.00   66.6    40    0.1    56     0.8   948.5    0.00 
 182    3:00   0.00   66.3    40    0.4    48     1.2   948.5    0.00 
 182    3:10   0.00   66.1    41    0.0   204     0.8   948.5    0.00 
 182    3:20   0.00   65.9    42    0.0     0     0.0   948.3    0.00 
 182    3:30   0.00   65.7    42    0.0     0     0.0   948.4    0.00 
 182    3:40   0.00   65.4    43    0.3    55     1.9   948.4    0.00 
 182    3:50   0.00   65.4    42    1.1    63     2.0   948.3    0.00 
 182    4:00   0.00   65.6    42    0.2    53     1.5   948.2    0.00 
 182    4:10   0.00   65.7    42    0.3    61     1.6   948.3    0.00 
 182    4:20   0.00   65.3    42    0.2   254     0.9   948.4    0.00 
 182    4:30   0.00   65.0    43    0.0    63     0.6   948.3    0.00 
 182    4:40   0.00   64.8    44    0.3    63     1.0   948.3    0.00 
 182    4:50   0.00   64.9    44    0.2    38     1.2   948.4    0.00 

Return to Hastings Natural History Reservation graphs page.


Western Regional Climate Center,wrcc@dri.edu